createdAt,value
2016-05-09T00:00:20.434Z,0
2016-05-09T00:01:20.593Z,0
2016-05-09T00:02:20.441Z,0
2016-05-09T00:03:20.443Z,0
2016-05-09T00:04:20.602Z,0
2016-05-09T00:05:20.589Z,0
2016-05-09T00:06:20.435Z,0
2016-05-09T00:07:20.595Z,0
2016-05-09T00:08:20.613Z,0
2016-05-09T00:09:20.615Z,0
2016-05-09T00:10:20.603Z,0
2016-05-09T00:11:20.698Z,0
2016-05-09T00:12:20.623Z,0
2016-05-09T00:13:20.626Z,0
2016-05-09T00:14:20.473Z,0
2016-05-09T00:15:20.475Z,0
2016-05-09T00:16:20.541Z,0
2016-05-09T00:17:20.605Z,0
2016-05-09T00:18:20.686Z,0
2016-05-09T00:19:20.470Z,0
2016-05-09T00:20:20.458Z,0
2016-05-09T00:21:20.664Z,0
2016-05-09T00:22:20.635Z,0
2016-05-09T00:23:20.638Z,0
2016-05-09T00:24:20.624Z,0
2016-05-09T00:25:20.627Z,0
2016-05-09T00:26:20.707Z,0
2016-05-09T00:27:20.336Z,0
2016-05-09T00:28:20.479Z,0
2016-05-09T00:29:20.497Z,0
2016-05-09T00:30:20.625Z,0
2016-05-09T00:31:20.752Z,0
2016-05-09T00:32:20.677Z,0
2016-05-09T00:33:20.524Z,0
2016-05-09T00:34:20.495Z,0
2016-05-09T00:35:20.701Z,0
2016-05-09T00:36:20.751Z,0
2016-05-09T00:37:20.675Z,0
2016-05-09T00:38:20.521Z,0
2016-05-09T00:39:20.681Z,0
2016-05-09T00:40:20.699Z,0
2016-05-09T00:41:20.733Z,0
2016-05-09T00:42:20.720Z,0
2016-05-09T00:43:20.692Z,0
2016-05-09T00:44:20.695Z,0
2016-05-09T00:45:20.555Z,0
2016-05-09T00:46:20.778Z,0
2016-05-09T00:47:20.702Z,0
2016-05-09T00:48:20.689Z,0
2016-05-09T00:49:20.691Z,0
2016-05-09T00:50:20.695Z,0
2016-05-09T00:51:20.713Z,0
2016-05-09T00:52:20.716Z,0
2016-05-09T00:53:20.561Z,0
2016-05-09T00:54:20.721Z,0
2016-05-09T00:55:20.739Z,0
2016-05-09T00:56:20.757Z,0
2016-05-09T00:57:20.572Z,0
2016-05-09T00:58:20.575Z,0
2016-05-09T00:59:20.891Z,0
2016-05-09T01:00:20.752Z,0
2016-05-09T01:01:20.662Z,0
2016-05-09T01:02:20.571Z,0
2016-05-09T01:03:20.620Z,0
2016-05-09T01:04:20.732Z,0
2016-05-09T01:05:20.735Z,0
2016-05-09T01:06:20.768Z,0
2016-05-09T01:07:20.740Z,0
2016-05-09T01:08:20.742Z,0
2016-05-09T01:09:20.746Z,0
2016-05-09T01:10:20.765Z,0
2016-05-09T01:11:20.689Z,0
2016-05-09T01:12:20.753Z,0
2016-05-09T01:13:20.584Z,0
2016-05-09T01:14:20.602Z,0
2016-05-09T01:15:20.762Z,0
2016-05-09T01:16:20.765Z,0
2016-05-09T01:17:20.783Z,0
2016-05-09T01:18:20.770Z,0
2016-05-09T01:19:20.803Z,0
2016-05-09T01:20:20.634Z,0
2016-05-09T01:21:20.777Z,0
2016-05-09T01:22:20.656Z,0
2016-05-09T01:23:20.783Z,0
2016-05-09T01:24:20.786Z,0
2016-05-09T01:25:20.819Z,0
2016-05-09T01:26:20.822Z,0
2016-05-09T01:27:20.653Z,0
2016-05-09T01:28:20.656Z,0
2016-05-09T01:29:20.377Z,0
2016-05-09T01:30:20.802Z,0
2016-05-09T01:31:20.820Z,0
2016-05-09T01:32:20.651Z,0
2016-05-09T01:33:20.794Z,0
2016-05-09T01:34:20.813Z,0
2016-05-09T01:35:20.659Z,0
2016-05-09T01:36:20.709Z,0
2016-05-09T01:37:20.679Z,0
2016-05-09T01:38:20.668Z,0
2016-05-09T01:39:20.811Z,0
2016-05-09T01:40:20.485Z,0
2016-05-09T01:41:20.863Z,0
2016-05-09T01:42:20.693Z,0
2016-05-09T01:43:20.680Z,0
2016-05-09T01:44:21.574Z,0
2016-05-09T01:45:20.842Z,0
2016-05-09T01:46:20.876Z,0
2016-05-09T01:47:20.832Z,0
2016-05-09T01:48:20.866Z,0
2016-05-09T01:49:20.837Z,0
2016-05-09T01:50:20.839Z,0
2016-05-09T01:51:20.875Z,0
2016-05-09T01:52:20.861Z,0
2016-05-09T01:53:20.848Z,0
2016-05-09T01:54:20.882Z,0
2016-05-09T01:55:20.697Z,0
2016-05-09T01:56:20.716Z,0
2016-05-09T01:57:20.875Z,0
2016-05-09T01:58:20.736Z,0
2016-05-09T01:59:20.989Z,0
2016-05-09T02:00:20.726Z,0
2016-05-09T02:01:20.729Z,0
2016-05-09T02:02:20.872Z,0
2016-05-09T02:03:20.860Z,0
2016-05-09T02:04:20.878Z,0
2016-05-09T02:05:20.880Z,0
2016-05-09T02:06:20.914Z,0
2016-05-09T02:07:20.885Z,0
2016-05-09T02:08:20.889Z,0
2016-05-09T02:09:20.891Z,0
2016-05-09T02:10:20.910Z,0
2016-05-09T02:11:20.740Z,0
2016-05-09T02:12:20.899Z,0
2016-05-09T02:13:20.917Z,0
2016-05-09T02:14:20.937Z,0
2016-05-09T02:15:20.751Z,0
2016-05-09T02:16:20.989Z,0
2016-05-09T02:17:20.787Z,0
2016-05-09T02:18:20.915Z,0
2016-05-09T02:19:20.917Z,0
2016-05-09T02:20:20.920Z,0
2016-05-09T02:21:20.970Z,0
2016-05-09T02:22:20.770Z,0
2016-05-09T02:23:21.045Z,0
2016-05-09T02:24:20.938Z,0
2016-05-09T02:25:20.940Z,0
2016-05-09T02:26:20.929Z,0
2016-05-09T02:27:20.947Z,0
2016-05-09T02:28:20.777Z,0
2016-05-09T02:29:20.951Z,0
2016-05-09T02:30:20.814Z,0
2016-05-09T02:31:20.863Z,0
2016-05-09T02:32:20.945Z,0
2016-05-09T02:33:20.791Z,0
2016-05-09T02:34:20.965Z,0
2016-05-09T02:35:20.968Z,0
2016-05-09T02:36:20.970Z,0
2016-05-09T02:37:20.973Z,0
2016-05-09T02:38:20.929Z,0
2016-05-09T02:39:20.948Z,0
2016-05-09T02:40:20.950Z,0
2016-05-09T02:41:21.000Z,0
2016-05-09T02:42:20.956Z,0
2016-05-09T02:43:20.958Z,0
2016-05-09T02:44:20.836Z,0
2016-05-09T02:45:20.995Z,0
2016-05-09T02:46:20.857Z,0
2016-05-09T02:47:20.828Z,0
2016-05-09T02:48:20.816Z,0
2016-05-09T02:49:21.272Z,0
2016-05-09T02:50:20.977Z,0
2016-05-09T02:51:21.089Z,0
2016-05-09T02:52:20.966Z,0
2016-05-09T02:53:20.985Z,0
2016-05-09T02:54:20.971Z,0
2016-05-09T02:55:20.663Z,0
2016-05-09T02:56:20.993Z,0
2016-05-09T02:57:20.980Z,0
2016-05-09T02:58:20.842Z,0
2016-05-09T02:59:20.908Z,0
2016-05-09T03:00:20.707Z,0
2016-05-09T03:01:20.991Z,0
2016-05-09T03:02:21.009Z,0
2016-05-09T03:03:21.012Z,0
2016-05-09T03:04:20.998Z,0
2016-05-09T03:05:20.845Z,0
2016-05-09T03:06:21.067Z,4
2016-05-09T03:07:20.835Z,4
2016-05-09T03:08:21.009Z,4
2016-05-09T03:09:21.013Z,0
2016-05-09T03:10:21.015Z,0
2016-05-09T03:11:21.033Z,0
2016-05-09T03:12:20.848Z,4
2016-05-09T03:13:21.008Z,4
2016-05-09T03:14:21.058Z,0
2016-05-09T03:15:20.997Z,4
2016-05-09T03:16:21.000Z,4
2016-05-09T03:17:20.706Z,4
2016-05-09T03:18:21.021Z,8
2016-05-09T03:19:21.024Z,8
2016-05-09T03:20:20.855Z,8
2016-05-09T03:21:20.952Z,8
2016-05-09T03:22:21.016Z,8
2016-05-09T03:23:21.019Z,12
2016-05-09T03:24:20.865Z,12
2016-05-09T03:25:20.868Z,12
2016-05-09T03:26:21.074Z,12
2016-05-09T03:27:20.889Z,16
2016-05-09T03:28:20.892Z,16
2016-05-09T03:29:21.848Z,24
2016-05-09T03:30:21.038Z,28
2016-05-09T03:31:21.024Z,28
2016-05-09T03:32:20.871Z,32
2016-05-09T03:33:20.858Z,36
2016-05-09T03:34:20.893Z,44
2016-05-09T03:35:20.879Z,48
2016-05-09T03:36:21.117Z,56
2016-05-09T03:37:21.025Z,64
2016-05-09T03:38:20.873Z,76
2016-05-09T03:39:21.031Z,84
2016-05-09T03:40:21.049Z,92
2016-05-09T03:41:20.926Z,104
2016-05-09T03:42:20.883Z,116
2016-05-09T03:43:21.041Z,132
2016-05-09T03:44:21.060Z,144
2016-05-09T03:45:21.031Z,160
2016-05-09T03:46:21.097Z,172
2016-05-09T03:47:20.911Z,192
2016-05-09T03:48:21.039Z,212
2016-05-09T03:49:30.808Z,236
2016-05-09T03:50:25.825Z,260
2016-05-09T03:51:23.532Z,284
2016-05-09T03:52:21.066Z,312
2016-05-09T03:53:21.052Z,332
2016-05-09T03:54:21.055Z,360
2016-05-09T03:55:21.074Z,392
2016-05-09T03:56:21.139Z,424
2016-05-09T03:57:21.094Z,452
2016-05-09T03:58:21.051Z,488
2016-05-09T03:59:22.162Z,520
2016-05-09T04:00:21.088Z,556
2016-05-09T04:01:21.199Z,596
2016-05-09T04:02:20.905Z,632
2016-05-09T04:03:20.923Z,684
2016-05-09T04:04:21.067Z,712
2016-05-09T04:05:21.069Z,748
2016-05-09T04:06:21.166Z,792
2016-05-09T04:07:20.918Z,836
2016-05-09T04:08:21.093Z,872
2016-05-09T04:09:21.064Z,920
2016-05-09T04:10:21.067Z,960
2016-05-09T04:11:21.100Z,1004
2016-05-09T04:12:21.089Z,1048
2016-05-09T04:13:21.076Z,1092
2016-05-09T04:14:20.969Z,1140
2016-05-09T04:15:21.096Z,1184
2016-05-09T04:16:21.099Z,1260
2016-05-09T04:17:21.102Z,1312
2016-05-09T04:18:21.089Z,1468
2016-05-09T04:19:21.092Z,1956
2016-05-09T04:20:21.063Z,2392
2016-05-09T04:21:21.143Z,2624
2016-05-09T04:22:21.068Z,2728
2016-05-09T04:23:20.946Z,2880
2016-05-09T04:24:21.074Z,3088
2016-05-09T04:25:21.108Z,3220
2016-05-09T04:26:21.094Z,3368
2016-05-09T04:27:21.082Z,3468
2016-05-09T04:28:20.944Z,3620
2016-05-09T04:29:20.946Z,3748
2016-05-09T04:30:21.105Z,3956
2016-05-09T04:31:20.999Z,4164
2016-05-09T04:32:21.126Z,4228
2016-05-09T04:33:21.129Z,4264
2016-05-09T04:34:20.804Z,4376
2016-05-09T04:35:21.103Z,4524
2016-05-09T04:36:21.199Z,4304
2016-05-09T04:37:21.124Z,3828
2016-05-09T04:38:20.971Z,3544
2016-05-09T04:39:21.129Z,3364
2016-05-09T04:40:21.132Z,3580
2016-05-09T04:41:21.166Z,5108
2016-05-09T04:42:21.153Z,5688
2016-05-09T04:43:21.140Z,4608
2016-05-09T04:44:21.721Z,3748
2016-05-09T04:45:21.146Z,5728
2016-05-09T04:46:21.242Z,5684
2016-05-09T04:47:21.150Z,5892
2016-05-09T04:48:20.997Z,6000
2016-05-09T04:49:21.189Z,6348
2016-05-09T04:50:21.174Z,6472
2016-05-09T04:51:21.194Z,6576
2016-05-09T04:52:21.399Z,6744
2016-05-09T04:53:21.183Z,6812
2016-05-09T04:54:21.044Z,6636
2016-05-09T04:55:21.064Z,5948
2016-05-09T04:56:21.222Z,7200
2016-05-09T04:57:21.225Z,5396
2016-05-09T04:58:21.071Z,6364
2016-05-09T04:59:21.449Z,6148
2016-05-09T05:00:21.232Z,6200
2016-05-09T05:01:21.236Z,6088
2016-05-09T05:02:21.238Z,6076
2016-05-09T05:03:21.257Z,5740
2016-05-09T05:04:21.259Z,5252
2016-05-09T05:05:21.231Z,4904
2016-05-09T05:06:21.327Z,4580
2016-05-09T05:07:21.268Z,4344
2016-05-09T05:08:21.301Z,4200
2016-05-09T05:09:21.132Z,4128
2016-05-09T05:10:21.276Z,4104
2016-05-09T05:11:21.325Z,4088
2016-05-09T05:12:21.296Z,4104
2016-05-09T05:13:21.284Z,4136
2016-05-09T05:14:21.317Z,4140
2016-05-09T05:15:21.336Z,4176
2016-05-09T05:16:21.228Z,4244
2016-05-09T05:17:21.170Z,4292
2016-05-09T05:18:21.312Z,4344
2016-05-09T05:19:21.190Z,4172
2016-05-09T05:20:21.333Z,4304
2016-05-09T05:21:21.367Z,8824
2016-05-09T05:22:21.213Z,4872
2016-05-09T05:23:21.342Z,4168
2016-05-09T05:24:21.361Z,4172
2016-05-09T05:25:21.347Z,4152
2016-05-09T05:26:21.224Z,4180
2016-05-09T05:27:21.352Z,4372
2016-05-09T05:28:21.214Z,4660
2016-05-09T05:29:22.467Z,4944
2016-05-09T05:30:21.377Z,5340
2016-05-09T05:31:21.426Z,5852
2016-05-09T05:32:20.928Z,6028
2016-05-09T05:33:21.399Z,6056
2016-05-09T05:34:21.387Z,6184
2016-05-09T05:35:21.390Z,6268
2016-05-09T05:36:21.471Z,6256
2016-05-09T05:37:21.410Z,6112
2016-05-09T05:38:21.241Z,5816
2016-05-09T05:39:21.259Z,5468
2016-05-09T05:40:21.481Z,5220
2016-05-09T05:41:21.281Z,10888
2016-05-09T05:42:21.284Z,4820
2016-05-09T05:43:21.286Z,5080
2016-05-09T05:44:22.820Z,5104
2016-05-09T05:45:21.464Z,5032
2016-05-09T05:46:21.498Z,4984
2016-05-09T05:47:21.469Z,4940
2016-05-09T05:48:21.347Z,4888
2016-05-09T05:49:21.349Z,4844
2016-05-09T05:50:21.492Z,4808
2016-05-09T05:51:21.479Z,4816
2016-05-09T05:52:21.482Z,11624
2016-05-09T05:53:21.517Z,11700
2016-05-09T05:54:21.347Z,6552
2016-05-09T05:55:21.506Z,5128
2016-05-09T05:56:21.539Z,5240
2016-05-09T05:57:21.355Z,5392
2016-05-09T05:58:21.498Z,5536
2016-05-09T05:59:21.657Z,5728
2016-05-09T06:00:21.578Z,5944
2016-05-09T06:01:21.656Z,6244
2016-05-09T06:02:21.686Z,6740
2016-05-09T06:03:21.718Z,8432
2016-05-09T06:04:21.796Z,9704
2016-05-09T06:05:21.798Z,12892
2016-05-09T06:06:21.677Z,9712
2016-05-09T06:07:21.678Z,9196
2016-05-09T06:08:21.869Z,8728
2016-05-09T06:09:21.872Z,8968
2016-05-09T06:10:21.896Z,9584
2016-05-09T06:11:21.888Z,8888
2016-05-09T06:12:21.757Z,10120
2016-05-09T06:13:21.922Z,10440
2016-05-09T06:14:22.294Z,11348
2016-05-09T06:15:21.643Z,11372
2016-05-09T06:16:22.006Z,11372
2016-05-09T06:17:21.996Z,10984
2016-05-09T06:18:21.970Z,11484
2016-05-09T06:19:21.989Z,11464
2016-05-09T06:20:21.992Z,11880
2016-05-09T06:21:21.996Z,11272
2016-05-09T06:22:22.015Z,11560
2016-05-09T06:23:22.018Z,11416
2016-05-09T06:24:21.866Z,11340
2016-05-09T06:25:22.025Z,11640
2016-05-09T06:26:22.059Z,11716
2016-05-09T06:27:21.937Z,11688
2016-05-09T06:28:22.064Z,11620
2016-05-09T06:29:22.255Z,11640
2016-05-09T06:30:22.070Z,11692
2016-05-09T06:31:22.135Z,11720
2016-05-09T06:32:21.949Z,11772
2016-05-09T06:33:22.093Z,11800
2016-05-09T06:34:22.111Z,12348
2016-05-09T06:35:21.833Z,12320
2016-05-09T06:36:21.852Z,11828
2016-05-09T06:37:22.635Z,11828
2016-05-09T06:38:22.154Z,11868
2016-05-09T06:39:22.188Z,11760
2016-05-09T06:40:22.190Z,11692
2016-05-09T06:41:28.599Z,11692
2016-05-09T06:42:22.211Z,11580
2016-05-09T06:43:22.073Z,11144
2016-05-09T06:44:22.717Z,11936
2016-05-09T06:45:22.219Z,12072
2016-05-09T06:46:22.160Z,12112
2016-05-09T06:47:21.959Z,12084
2016-05-09T06:48:22.274Z,12352
2016-05-09T06:49:22.309Z,12348
2016-05-09T06:50:22.123Z,12104
2016-05-09T06:51:22.298Z,11348
2016-05-09T06:52:22.331Z,9536
2016-05-09T06:53:22.147Z,11104
2016-05-09T06:54:22.322Z,11824
2016-05-09T06:55:22.340Z,11604
2016-05-09T06:56:22.359Z,12184
2016-05-09T06:57:22.361Z,12100
2016-05-09T06:58:22.208Z,12180
2016-05-09T06:59:22.461Z,12264
2016-05-09T07:00:22.384Z,12496
2016-05-09T07:01:22.325Z,12284
2016-05-09T07:02:22.233Z,12068
2016-05-09T07:03:22.439Z,11456
2016-05-09T07:04:22.270Z,10232
2016-05-09T07:05:22.288Z,11232
2016-05-09T07:06:22.464Z,11980
2016-05-09T07:07:22.482Z,12376
2016-05-09T07:08:22.328Z,12376
2016-05-09T07:09:22.315Z,12364
2016-05-09T07:10:22.474Z,12316
2016-05-09T07:11:22.368Z,12292
2016-05-09T07:12:22.511Z,11584
2016-05-09T07:13:22.545Z,10680
2016-05-09T07:14:23.594Z,11400
2016-05-09T07:15:22.376Z,10868
2016-05-09T07:16:22.441Z,10284
2016-05-09T07:17:22.584Z,9472
2016-05-09T07:18:22.446Z,8904
2016-05-09T07:19:22.605Z,7768
2016-05-09T07:20:22.607Z,7848
2016-05-09T07:21:22.688Z,7424
2016-05-09T07:22:22.488Z,7148
2016-05-09T07:23:22.475Z,6536
2016-05-09T07:24:22.618Z,8040
2016-05-09T07:25:22.668Z,9836
2016-05-09T07:26:22.687Z,9852
2016-05-09T07:27:22.673Z,11040
2016-05-09T07:28:22.520Z,12332
2016-05-09T07:29:24.867Z,12572
2016-05-09T07:30:22.698Z,12680
2016-05-09T07:31:22.794Z,12592
2016-05-09T07:32:22.733Z,12780
2016-05-09T07:33:22.409Z,12324
2016-05-09T07:34:22.739Z,12660
2016-05-09T07:35:22.726Z,12624
2016-05-09T07:36:22.745Z,12640
2016-05-09T07:37:22.778Z,12668
2016-05-09T07:38:22.781Z,12236
2016-05-09T07:39:22.612Z,10500
2016-05-09T07:40:22.802Z,11260
2016-05-09T07:41:22.727Z,11820
2016-05-09T07:42:22.808Z,11056
2016-05-09T07:43:22.810Z,11604
2016-05-09T07:44:22.860Z,12024
2016-05-09T07:45:22.832Z,11736
2016-05-09T07:46:22.912Z,11392
2016-05-09T07:47:22.696Z,10468
2016-05-09T07:48:22.902Z,10684
2016-05-09T07:49:22.904Z,10560
2016-05-09T07:50:22.924Z,10164
2016-05-09T07:51:22.931Z,10076
2016-05-09T07:52:22.918Z,10444
2016-05-09T07:53:22.937Z,9404
2016-05-09T07:54:22.923Z,12076
2016-05-09T07:55:22.935Z,12380
2016-05-09T07:56:23.000Z,12216
2016-05-09T07:57:22.988Z,12204
2016-05-09T07:58:22.818Z,12120
2016-05-09T07:59:22.837Z,11596
2016-05-09T08:00:22.980Z,11248
2016-05-09T08:01:22.857Z,11160
2016-05-09T08:02:23.016Z,11892
2016-05-09T08:03:23.019Z,11812
2016-05-09T08:04:23.037Z,11664
2016-05-09T08:05:24.727Z,10764
2016-05-09T08:06:34.623Z,11292
2016-05-09T08:07:35.548Z,11068
2016-05-09T08:08:30.985Z,11432
2016-05-09T08:09:48.804Z,11492
2016-05-09T08:10:26.413Z,11360
2016-05-09T08:11:30.401Z,11144
2016-05-09T08:12:27.028Z,11004
2016-05-09T08:13:23.124Z,10976
2016-05-09T08:14:23.142Z,10500
2016-05-09T08:15:23.145Z,10036
2016-05-09T08:16:23.164Z,10060
2016-05-09T08:17:23.010Z,10092
2016-05-09T08:18:23.170Z,10012
2016-05-09T08:19:23.187Z,9880
2016-05-09T08:20:23.205Z,9788
2016-05-09T08:21:23.131Z,8884
2016-05-09T08:22:23.242Z,9200
2016-05-09T08:23:23.072Z,9004
2016-05-09T08:24:23.108Z,9652
2016-05-09T08:25:23.251Z,10276
2016-05-09T08:26:23.206Z,10160
2016-05-09T08:27:23.287Z,9736
2016-05-09T08:28:23.133Z,8584
2016-05-09T08:29:23.496Z,8544
2016-05-09T08:30:23.170Z,8512
2016-05-09T08:31:23.172Z,8328
2016-05-09T08:32:23.238Z,8692
2016-05-09T08:33:23.335Z,9244
2016-05-09T08:34:23.352Z,9300
2016-05-09T08:35:23.355Z,9560
2016-05-09T08:36:23.374Z,9600
2016-05-09T08:37:23.393Z,9456
2016-05-09T08:38:23.410Z,9440
2016-05-09T08:39:23.412Z,9632
2016-05-09T08:40:23.431Z,9464
2016-05-09T08:41:23.513Z,9432
2016-05-09T08:42:23.296Z,9256
2016-05-09T08:43:23.455Z,9024
2016-05-09T08:44:23.489Z,9012
2016-05-09T08:45:23.507Z,9024
2016-05-09T08:46:23.588Z,9000
2016-05-09T08:47:23.528Z,8972
2016-05-09T08:48:23.562Z,8976
2016-05-09T08:49:23.346Z,8908
2016-05-09T08:50:23.380Z,8844
2016-05-09T08:51:23.570Z,8780
2016-05-09T08:52:23.401Z,8696
2016-05-09T08:53:23.607Z,8612
2016-05-09T08:54:23.609Z,8568
2016-05-09T08:55:23.612Z,8500
2016-05-09T08:56:23.694Z,8516
2016-05-09T08:57:23.602Z,8504
2016-05-09T08:58:23.636Z,8356
2016-05-09T08:59:24.217Z,8280
2016-05-09T09:00:23.657Z,8204
2016-05-09T09:01:23.691Z,8136
2016-05-09T09:02:23.678Z,8112
2016-05-09T09:03:23.696Z,8064
2016-05-09T09:04:23.683Z,8028
2016-05-09T09:05:23.374Z,7984
2016-05-09T09:06:23.563Z,8064
2016-05-09T09:07:23.723Z,8068
2016-05-09T09:08:23.584Z,8048
2016-05-09T09:09:23.572Z,8040
2016-05-09T09:10:23.574Z,8004
2016-05-09T09:11:23.420Z,7852
2016-05-09T09:12:23.611Z,7652
2016-05-09T09:13:23.755Z,7612
2016-05-09T09:14:24.351Z,7656
2016-05-09T09:15:23.776Z,7324
2016-05-09T09:16:23.763Z,7464
2016-05-09T09:17:23.796Z,7492
2016-05-09T09:18:23.799Z,7460
2016-05-09T09:19:23.802Z,7420
2016-05-09T09:20:23.664Z,7492
2016-05-09T09:21:23.901Z,7672
2016-05-09T09:22:23.653Z,7568
2016-05-09T09:23:23.828Z,7804
2016-05-09T09:24:23.847Z,7924
2016-05-09T09:25:23.834Z,8152
2016-05-09T09:26:23.836Z,8204
2016-05-09T09:27:23.870Z,8072
2016-05-09T09:28:23.733Z,7824
2016-05-09T09:29:23.875Z,7980
2016-05-09T09:30:23.878Z,8152
2016-05-09T09:31:23.958Z,8448
2016-05-09T09:32:23.775Z,8312
2016-05-09T09:33:23.777Z,8308
2016-05-09T09:34:23.905Z,8316
2016-05-09T09:35:23.892Z,7880
2016-05-09T09:36:23.941Z,7864
2016-05-09T09:37:23.913Z,7936
2016-05-09T09:38:23.947Z,7896
2016-05-09T09:39:23.934Z,7884
2016-05-09T09:40:23.952Z,7908
2016-05-09T09:41:24.033Z,8052
2016-05-09T09:42:23.957Z,7708
2016-05-09T09:43:23.976Z,7692
2016-05-09T09:44:23.978Z,7872
2016-05-09T09:45:24.013Z,7536
2016-05-09T09:46:23.890Z,7888
2016-05-09T09:47:24.001Z,8072
2016-05-09T09:48:24.005Z,8332
2016-05-09T09:49:23.882Z,8508
2016-05-09T09:50:24.010Z,8576
2016-05-09T09:51:24.059Z,8708
2016-05-09T09:52:24.062Z,8856
2016-05-09T09:53:24.050Z,8820
2016-05-09T09:54:24.053Z,8812
2016-05-09T09:55:23.899Z,8532
2016-05-09T09:56:24.073Z,8576
2016-05-09T09:57:24.092Z,8668
2016-05-09T09:58:24.078Z,8620
2016-05-09T09:59:24.128Z,8612
2016-05-09T10:00:24.099Z,8520
2016-05-09T10:01:24.149Z,8284
2016-05-09T10:02:23.981Z,7836
2016-05-09T10:03:24.124Z,7364
2016-05-09T10:04:24.158Z,7088
2016-05-09T10:05:23.817Z,7024
2016-05-09T10:06:24.210Z,7080
2016-05-09T10:07:24.165Z,7272
2016-05-09T10:08:23.840Z,7380
2016-05-09T10:09:24.171Z,7356
2016-05-09T10:10:24.220Z,7224
2016-05-09T10:11:24.301Z,7200
2016-05-09T10:12:24.179Z,7360
2016-05-09T10:13:24.026Z,7616
2016-05-09T10:14:24.466Z,7908
2016-05-09T10:15:24.218Z,8176
2016-05-09T10:16:24.237Z,8240
2016-05-09T10:17:24.240Z,8468
2016-05-09T10:18:24.257Z,8608
2016-05-09T10:19:24.245Z,8808
2016-05-09T10:20:24.091Z,8940
2016-05-09T10:21:24.281Z,9064
2016-05-09T10:22:24.268Z,9200
2016-05-09T10:23:24.287Z,9332
2016-05-09T10:24:24.289Z,9452
2016-05-09T10:25:24.308Z,9724
2016-05-09T10:26:24.279Z,9848
2016-05-09T10:27:24.313Z,9912
2016-05-09T10:28:24.316Z,9904
2016-05-09T10:29:24.772Z,9788
2016-05-09T10:30:24.337Z,9780
2016-05-09T10:31:24.167Z,9792
2016-05-09T10:32:24.327Z,9768
2016-05-09T10:33:24.360Z,9760
2016-05-09T10:34:24.379Z,9668
2016-05-09T10:35:24.397Z,9752
2016-05-09T10:36:24.384Z,9828
2016-05-09T10:37:24.230Z,9908
2016-05-09T10:38:24.374Z,9860
2016-05-09T10:39:24.235Z,9820
2016-05-09T10:40:24.410Z,9908
2016-05-09T10:41:24.413Z,9868
2016-05-09T10:42:24.416Z,9936
2016-05-09T10:43:24.450Z,9796
2016-05-09T10:44:24.968Z,9672
2016-05-09T10:45:24.299Z,9560
2016-05-09T10:46:24.489Z,9428
2016-05-09T10:47:24.320Z,9576
2016-05-09T10:48:24.510Z,9716
2016-05-09T10:49:24.498Z,9748
2016-05-09T10:50:24.515Z,9780
2016-05-09T10:51:24.596Z,9636
2016-05-09T10:52:24.489Z,9768
2016-05-09T10:53:24.508Z,9972
2016-05-09T10:54:24.526Z,10252
2016-05-09T10:55:24.435Z,10372
2016-05-09T10:56:24.392Z,10508
2016-05-09T10:57:24.581Z,10720
2016-05-09T10:58:24.568Z,10700
2016-05-09T10:59:24.274Z,10860
2016-05-09T11:00:24.417Z,11120
2016-05-09T11:01:24.592Z,11232
2016-05-09T11:02:24.578Z,11424
2016-05-09T11:03:24.597Z,11500
2016-05-09T11:04:24.600Z,11396
2016-05-09T11:05:24.446Z,11500
2016-05-09T11:06:24.730Z,11372
2016-05-09T11:07:24.655Z,11436
2016-05-09T11:08:24.627Z,11332
2016-05-09T11:09:24.676Z,11380
2016-05-09T11:10:24.663Z,11336
2016-05-09T11:11:24.509Z,11268
2016-05-09T11:12:24.668Z,11284
2016-05-09T11:13:24.688Z,11256
2016-05-09T11:14:25.736Z,11240
2016-05-09T11:15:24.568Z,11272
2016-05-09T11:16:24.695Z,11316
2016-05-09T11:17:24.712Z,11332
2016-05-09T11:18:24.731Z,11300
2016-05-09T11:19:24.734Z,11356
2016-05-09T11:20:24.752Z,11412
2016-05-09T11:21:24.754Z,11380
2016-05-09T11:22:24.773Z,11280
2016-05-09T11:23:24.620Z,11076
2016-05-09T11:24:24.638Z,11064
2016-05-09T11:25:24.782Z,11012
2016-05-09T11:26:24.831Z,11064
2016-05-09T11:27:24.818Z,11168
2016-05-09T11:28:24.806Z,11184
2016-05-09T11:29:25.870Z,11060
2016-05-09T11:30:24.857Z,11040
2016-05-09T11:31:24.861Z,11232
2016-05-09T11:32:24.706Z,11144
2016-05-09T11:33:24.897Z,11084
2016-05-09T11:34:24.899Z,11004
2016-05-09T11:35:24.902Z,10956
2016-05-09T11:36:24.795Z,10856
2016-05-09T11:37:24.892Z,10748
2016-05-09T11:38:24.755Z,10656
2016-05-09T11:39:24.913Z,10588
2016-05-09T11:40:24.900Z,10508
2016-05-09T11:41:25.013Z,10448
2016-05-09T11:42:24.936Z,10420
2016-05-09T11:43:24.955Z,10312
2016-05-09T11:44:25.364Z,10160
2016-05-09T11:45:24.960Z,10060
2016-05-09T11:46:25.041Z,10000
2016-05-09T11:47:24.824Z,9940
2016-05-09T11:48:25.000Z,9908
2016-05-09T11:49:25.018Z,9848
2016-05-09T11:50:24.848Z,9828
2016-05-09T11:51:25.039Z,9620
2016-05-09T11:52:25.026Z,9452
2016-05-09T11:53:24.904Z,9600
2016-05-09T11:54:25.048Z,9640
2016-05-09T11:55:25.081Z,9728
2016-05-09T11:56:25.114Z,9744
2016-05-09T11:57:25.086Z,9720
2016-05-09T11:58:25.090Z,9340
2016-05-09T11:59:25.451Z,9424
2016-05-09T12:00:24.938Z,9472
2016-05-09T12:01:25.128Z,9580
2016-05-09T12:02:24.959Z,9608
2016-05-09T12:03:25.134Z,8876
2016-05-09T12:04:25.137Z,9356
2016-05-09T12:05:25.014Z,9536
2016-05-09T12:06:25.000Z,9460
2016-05-09T12:07:25.160Z,9408
2016-05-09T12:08:25.179Z,9768
2016-05-09T12:09:25.009Z,9932
2016-05-09T12:10:25.199Z,10100
2016-05-09T12:11:25.202Z,10208
2016-05-09T12:12:25.048Z,10008
2016-05-09T12:13:25.052Z,9764
2016-05-09T12:14:25.085Z,9736
2016-05-09T12:15:25.104Z,9936
2016-05-09T12:16:24.918Z,9956
2016-05-09T12:17:25.109Z,9872
2016-05-09T12:18:25.096Z,9872
2016-05-09T12:19:25.115Z,9796
2016-05-09T12:20:25.101Z,9700
2016-05-09T12:21:25.120Z,9668
2016-05-09T12:22:25.310Z,9648
2016-05-09T12:23:25.313Z,9640
2016-05-09T12:24:25.299Z,9560
2016-05-09T12:25:25.317Z,9528
2016-05-09T12:26:25.351Z,9320
2016-05-09T12:27:25.354Z,9152
2016-05-09T12:28:25.185Z,9260
2016-05-09T12:29:25.642Z,9148
2016-05-09T12:30:25.362Z,8984
2016-05-09T12:31:25.272Z,8852
2016-05-09T12:32:25.415Z,8352
2016-05-09T12:33:25.434Z,8872
2016-05-09T12:34:25.420Z,7936
2016-05-09T12:35:25.423Z,8976
2016-05-09T12:36:25.519Z,8988
2016-05-09T12:37:25.459Z,9068
2016-05-09T12:38:25.447Z,9128
2016-05-09T12:39:25.449Z,9056
2016-05-09T12:40:25.452Z,9036
2016-05-09T12:41:25.470Z,9000
2016-05-09T12:42:25.489Z,8860
2016-05-09T12:43:25.475Z,8708
2016-05-09T12:44:27.384Z,8636
2016-05-09T12:45:25.528Z,8576
2016-05-09T12:46:25.563Z,8496
2016-05-09T12:47:25.533Z,8424
2016-05-09T12:48:25.380Z,8396
2016-05-09T12:49:25.523Z,8492
2016-05-09T12:50:25.386Z,8572
2016-05-09T12:51:32.701Z,8488
2016-05-09T12:52:25.313Z,8488
2016-05-09T12:53:25.268Z,8792
2016-05-09T12:54:25.426Z,8792
2016-05-09T12:55:25.587Z,8804
2016-05-09T12:56:25.621Z,8772
2016-05-09T12:57:25.607Z,8828
2016-05-09T12:58:25.579Z,8868
2016-05-09T12:59:25.862Z,8936
2016-05-09T13:00:25.631Z,8888
2016-05-09T13:01:25.649Z,8832
2016-05-09T13:02:25.668Z,8784
2016-05-09T13:03:25.639Z,8764
2016-05-09T13:04:25.673Z,8680
2016-05-09T13:05:25.659Z,8692
2016-05-09T13:06:26.553Z,8660
2016-05-09T13:07:25.665Z,8652
2016-05-09T13:08:25.731Z,8636
2016-05-09T13:09:25.561Z,8584
2016-05-09T13:10:25.720Z,8504
2016-05-09T13:11:25.738Z,8576
2016-05-09T13:12:25.569Z,8672
2016-05-09T13:13:25.728Z,7584
2016-05-09T13:14:25.950Z,7848
2016-05-09T13:15:25.594Z,8000
2016-05-09T13:16:25.611Z,7316
2016-05-09T13:17:25.771Z,7220
2016-05-09T13:18:25.648Z,7204
2016-05-09T13:19:25.792Z,7248
2016-05-09T13:20:25.810Z,7260
2016-05-09T13:21:25.797Z,7272
2016-05-09T13:22:25.846Z,7444
2016-05-09T13:23:25.677Z,7912
2016-05-09T13:24:25.820Z,7360
2016-05-09T13:25:25.855Z,7372
2016-05-09T13:26:25.888Z,7684
2016-05-09T13:27:25.891Z,7116
2016-05-09T13:28:25.878Z,6688
2016-05-09T13:29:25.881Z,6556
2016-05-09T13:30:25.743Z,6560
2016-05-09T13:31:25.887Z,6700
2016-05-09T13:32:25.795Z,6872
2016-05-09T13:33:25.923Z,7100
2016-05-09T13:34:25.925Z,7372
2016-05-09T13:35:25.773Z,7720